sensor_id;sensor_type;location;lat;lon;timestamp;P1;durP1;ratioP1;P2;durP2;ratioP2
4089;SDS011;2059;48.538;12.146;2023-03-24T00:04:56;6.27;;;5.77;;
4089;SDS011;2059;48.538;12.146;2023-03-24T00:10:00;5.40;;;4.90;;
4089;SDS011;2059;48.538;12.146;2023-03-24T00:15:05;7.57;;;6.97;;
4089;SDS011;2059;48.538;12.146;2023-03-24T00:20:08;6.30;;;5.70;;
4089;SDS011;2059;48.538;12.146;2023-03-24T00:25:15;6.27;;;5.67;;
4089;SDS011;2059;48.538;12.146;2023-03-24T00:30:19;6.20;;;5.40;;
4089;SDS011;2059;48.538;12.146;2023-03-24T00:35:22;5.83;;;5.33;;
4089;SDS011;2059;48.538;12.146;2023-03-24T00:40:25;6.73;;;5.53;;
4089;SDS011;2059;48.538;12.146;2023-03-24T00:45:27;6.17;;;5.70;;
4089;SDS011;2059;48.538;12.146;2023-03-24T00:50:33;6.37;;;5.90;;
4089;SDS011;2059;48.538;12.146;2023-03-24T00:55:36;6.23;;;5.73;;
4089;SDS011;2059;48.538;12.146;2023-03-24T01:00:38;6.40;;;5.80;;
4089;SDS011;2059;48.538;12.146;2023-03-24T01:05:41;5.53;;;5.13;;
4089;SDS011;2059;48.538;12.146;2023-03-24T01:10:48;6.67;;;6.07;;
4089;SDS011;2059;48.538;12.146;2023-03-24T01:15:52;7.33;;;6.73;;
4089;SDS011;2059;48.538;12.146;2023-03-24T01:20:54;8.10;;;7.40;;
4089;SDS011;2059;48.538;12.146;2023-03-24T01:25:58;7.77;;;7.10;;
4089;SDS011;2059;48.538;12.146;2023-03-24T01:31:03;7.27;;;6.77;;
4089;SDS011;2059;48.538;12.146;2023-03-24T01:36:06;6.90;;;6.40;;
4089;SDS011;2059;48.538;12.146;2023-03-24T01:41:09;7.30;;;6.80;;
4089;SDS011;2059;48.538;12.146;2023-03-24T01:46:12;10.00;;;7.37;;
4089;SDS011;2059;48.538;12.146;2023-03-24T01:51:18;7.53;;;6.93;;
4089;SDS011;2059;48.538;12.146;2023-03-24T01:56:23;9.40;;;7.03;;
4089;SDS011;2059;48.538;12.146;2023-03-24T02:01:27;8.33;;;7.63;;
4089;SDS011;2059;48.538;12.146;2023-03-24T02:06:31;6.30;;;5.80;;
4089;SDS011;2059;48.538;12.146;2023-03-24T02:11:36;6.83;;;6.23;;
4089;SDS011;2059;48.538;12.146;2023-03-24T02:16:49;6.47;;;5.90;;
4089;SDS011;2059;48.538;12.146;2023-03-24T02:22:24;6.90;;;5.90;;
4089;SDS011;2059;48.538;12.146;2023-03-24T02:44:25;6.87;;;6.13;;
4089;SDS011;2059;48.538;12.146;2023-03-24T02:49:34;5.97;;;5.57;;
4089;SDS011;2059;48.538;12.146;2023-03-24T02:54:45;8.70;;;7.90;;
4089;SDS011;2059;48.538;12.146;2023-03-24T02:59:52;6.73;;;6.20;;
4089;SDS011;2059;48.538;12.146;2023-03-24T03:04:59;6.30;;;5.80;;
4089;SDS011;2059;48.538;12.146;2023-03-24T03:10:07;8.60;;;6.30;;
4089;SDS011;2059;48.538;12.146;2023-03-24T03:15:15;6.70;;;6.10;;
4089;SDS011;2059;48.538;12.146;2023-03-24T03:20:21;6.83;;;6.17;;
4089;SDS011;2059;48.538;12.146;2023-03-24T03:25:25;6.70;;;6.10;;
4089;SDS011;2059;48.538;12.146;2023-03-24T03:30:33;7.33;;;6.63;;
4089;SDS011;2059;48.538;12.146;2023-03-24T03:35:38;6.60;;;6.10;;
4089;SDS011;2059;48.538;12.146;2023-03-24T03:40:48;7.30;;;6.60;;
4089;SDS011;2059;48.538;12.146;2023-03-24T03:45:52;7.03;;;6.33;;
4089;SDS011;2059;48.538;12.146;2023-03-24T03:50:55;7.43;;;6.60;;
4089;SDS011;2059;48.538;12.146;2023-03-24T03:55:57;10.73;;;7.30;;
4089;SDS011;2059;48.538;12.146;2023-03-24T04:01:00;6.53;;;6.03;;
4089;SDS011;2059;48.538;12.146;2023-03-24T04:06:06;5.90;;;5.50;;
4089;SDS011;2059;48.538;12.146;2023-03-24T04:11:31;6.17;;;5.67;;
4089;SDS011;2059;48.538;12.146;2023-03-24T04:16:50;6.00;;;5.57;;
4089;SDS011;2059;48.538;12.146;2023-03-24T04:22:05;5.83;;;5.33;;
4089;SDS011;2059;48.538;12.146;2023-03-24T04:27:17;5.30;;;4.90;;
4089;SDS011;2059;48.538;12.146;2023-03-24T04:32:28;5.47;;;5.07;;
4089;SDS011;2059;48.538;12.146;2023-03-24T04:37:40;6.37;;;5.50;;
4089;SDS011;2059;48.538;12.146;2023-03-24T04:42:43;5.50;;;5.10;;
4089;SDS011;2059;48.538;12.146;2023-03-24T04:47:53;5.40;;;5.00;;
4089;SDS011;2059;48.538;12.146;2023-03-24T04:52:57;5.67;;;5.17;;
4089;SDS011;2059;48.538;12.146;2023-03-24T04:57:59;7.97;;;5.53;;
4089;SDS011;2059;48.538;12.146;2023-03-24T05:03:02;5.47;;;5.03;;
4089;SDS011;2059;48.538;12.146;2023-03-24T05:08:04;5.23;;;4.83;;
4089;SDS011;2059;48.538;12.146;2023-03-24T05:13:07;6.00;;;5.50;;
4089;SDS011;2059;48.538;12.146;2023-03-24T05:18:10;6.70;;;6.10;;
4089;SDS011;2059;48.538;12.146;2023-03-24T05:23:12;6.57;;;6.00;;
4089;SDS011;2059;48.538;12.146;2023-03-24T05:28:14;6.23;;;5.73;;
4089;SDS011;2059;48.538;12.146;2023-03-24T05:33:17;6.43;;;5.93;;
4089;SDS011;2059;48.538;12.146;2023-03-24T05:38:19;8.00;;;6.40;;
4089;SDS011;2059;48.538;12.146;2023-03-24T05:43:21;6.77;;;6.10;;
4089;SDS011;2059;48.538;12.146;2023-03-24T05:48:24;7.10;;;6.50;;
4089;SDS011;2059;48.538;12.146;2023-03-24T05:53:26;7.30;;;6.70;;
4089;SDS011;2059;48.538;12.146;2023-03-24T05:58:27;6.80;;;6.30;;
4089;SDS011;2059;48.538;12.146;2023-03-24T06:03:31;6.80;;;6.20;;
4089;SDS011;2059;48.538;12.146;2023-03-24T06:08:33;8.23;;;6.10;;
4089;SDS011;2059;48.538;12.146;2023-03-24T06:13:35;6.87;;;6.37;;
4089;SDS011;2059;48.538;12.146;2023-03-24T06:18:38;8.10;;;7.30;;
4089;SDS011;2059;48.538;12.146;2023-03-24T06:23:41;7.00;;;6.30;;
4089;SDS011;2059;48.538;12.146;2023-03-24T06:28:43;7.13;;;6.60;;
4089;SDS011;2059;48.538;12.146;2023-03-24T06:33:47;6.77;;;6.07;;
4089;SDS011;2059;48.538;12.146;2023-03-24T06:38:48;10.60;;;6.40;;
4089;SDS011;2059;48.538;12.146;2023-03-24T06:43:50;7.17;;;6.57;;
4089;SDS011;2059;48.538;12.146;2023-03-24T06:48:53;6.90;;;6.30;;
4089;SDS011;2059;48.538;12.146;2023-03-24T06:53:55;6.90;;;6.20;;
4089;SDS011;2059;48.538;12.146;2023-03-24T06:58:57;8.07;;;6.83;;
4089;SDS011;2059;48.538;12.146;2023-03-24T07:04:00;6.70;;;6.13;;
4089;SDS011;2059;48.538;12.146;2023-03-24T07:09:02;7.00;;;6.40;;
4089;SDS011;2059;48.538;12.146;2023-03-24T07:14:04;8.07;;;7.27;;
4089;SDS011;2059;48.538;12.146;2023-03-24T07:19:07;10.00;;;7.60;;
4089;SDS011;2059;48.538;12.146;2023-03-24T07:24:09;9.13;;;8.30;;
4089;SDS011;2059;48.538;12.146;2023-03-24T07:29:11;8.07;;;7.33;;
4089;SDS011;2059;48.538;12.146;2023-03-24T07:34:14;8.30;;;7.53;;
4089;SDS011;2059;48.538;12.146;2023-03-24T07:39:16;8.63;;;7.20;;
4089;SDS011;2059;48.538;12.146;2023-03-24T07:44:18;8.40;;;7.70;;
4089;SDS011;2059;48.538;12.146;2023-03-24T07:49:21;8.33;;;7.57;;
4089;SDS011;2059;48.538;12.146;2023-03-24T07:54:23;9.20;;;8.40;;
4089;SDS011;2059;48.538;12.146;2023-03-24T07:59:26;8.87;;;8.00;;
4089;SDS011;2059;48.538;12.146;2023-03-24T08:04:29;15.53;;;12.10;;
4089;SDS011;2059;48.538;12.146;2023-03-24T08:09:32;11.63;;;10.47;;
4089;SDS011;2059;48.538;12.146;2023-03-24T08:14:34;9.97;;;9.00;;
4089;SDS011;2059;48.538;12.146;2023-03-24T08:19:37;9.70;;;8.70;;
4089;SDS011;2059;48.538;12.146;2023-03-24T08:24:38;9.83;;;8.07;;
4089;SDS011;2059;48.538;12.146;2023-03-24T08:29:40;9.70;;;8.77;;
4089;SDS011;2059;48.538;12.146;2023-03-24T08:34:43;9.70;;;8.60;;
4089;SDS011;2059;48.538;12.146;2023-03-24T08:39:45;9.77;;;8.63;;
4089;SDS011;2059;48.538;12.146;2023-03-24T08:44:47;9.83;;;8.83;;
4089;SDS011;2059;48.538;12.146;2023-03-24T08:49:53;9.80;;;8.90;;
4089;SDS011;2059;48.538;12.146;2023-03-24T08:54:56;9.50;;;8.60;;
4089;SDS011;2059;48.538;12.146;2023-03-24T08:59:58;8.63;;;7.83;;
4089;SDS011;2059;48.538;12.146;2023-03-24T09:05:01;8.10;;;7.40;;
4089;SDS011;2059;48.538;12.146;2023-03-24T09:10:04;8.30;;;7.57;;
4089;SDS011;2059;48.538;12.146;2023-03-24T09:15:11;6.27;;;5.70;;
4089;SDS011;2059;48.538;12.146;2023-03-24T09:20:15;6.30;;;5.77;;
4089;SDS011;2059;48.538;12.146;2023-03-24T09:25:19;5.73;;;5.30;;
4089;SDS011;2059;48.538;12.146;2023-03-24T09:30:24;5.50;;;5.10;;
4089;SDS011;2059;48.538;12.146;2023-03-24T09:35:28;5.30;;;4.90;;
4089;SDS011;2059;48.538;12.146;2023-03-24T09:40:30;6.03;;;5.33;;
4089;SDS011;2059;48.538;12.146;2023-03-24T09:45:35;6.13;;;5.60;;
4089;SDS011;2059;48.538;12.146;2023-03-24T09:50:46;6.33;;;5.73;;
4089;SDS011;2059;48.538;12.146;2023-03-24T09:55:53;6.37;;;5.77;;
4089;SDS011;2059;48.538;12.146;2023-03-24T10:00:55;5.83;;;5.30;;
4089;SDS011;2059;48.538;12.146;2023-03-24T10:05:59;5.80;;;5.30;;
4089;SDS011;2059;48.538;12.146;2023-03-24T10:11:10;7.23;;;5.63;;
4089;SDS011;2059;48.538;12.146;2023-03-24T10:16:21;6.80;;;5.40;;
4089;SDS011;2059;48.538;12.146;2023-03-24T10:21:32;7.17;;;6.27;;
4089;SDS011;2059;48.538;12.146;2023-03-24T10:26:41;7.23;;;6.50;;
4089;SDS011;2059;48.538;12.146;2023-03-24T10:31:50;7.30;;;6.60;;
4089;SDS011;2059;48.538;12.146;2023-03-24T10:36:56;7.00;;;6.50;;
4089;SDS011;2059;48.538;12.146;2023-03-24T10:41:59;5.00;;;4.60;;
4089;SDS011;2059;48.538;12.146;2023-03-24T10:47:01;6.47;;;5.90;;
4089;SDS011;2059;48.538;12.146;2023-03-24T10:52:08;5.83;;;5.33;;
4089;SDS011;2059;48.538;12.146;2023-03-24T10:57:13;9.17;;;5.57;;
4089;SDS011;2059;48.538;12.146;2023-03-24T11:02:19;5.77;;;5.20;;
4089;SDS011;2059;48.538;12.146;2023-03-24T11:07:27;5.80;;;5.20;;
4089;SDS011;2059;48.538;12.146;2023-03-24T11:12:32;5.40;;;5.00;;
4089;SDS011;2059;48.538;12.146;2023-03-24T11:17:35;5.23;;;4.83;;
4089;SDS011;2059;48.538;12.146;2023-03-24T11:22:39;4.50;;;4.10;;
4089;SDS011;2059;48.538;12.146;2023-03-24T11:27:40;4.97;;;4.57;;
4089;SDS011;2059;48.538;12.146;2023-03-24T11:32:44;4.87;;;4.40;;
4089;SDS011;2059;48.538;12.146;2023-03-24T11:37:48;4.47;;;4.10;;
4089;SDS011;2059;48.538;12.146;2023-03-24T11:42:52;6.23;;;5.73;;
4089;SDS011;2059;48.538;12.146;2023-03-24T11:47:57;6.63;;;6.23;;
4089;SDS011;2059;48.538;12.146;2023-03-24T11:53:03;6.30;;;5.90;;
4089;SDS011;2059;48.538;12.146;2023-03-24T11:58:13;6.70;;;6.20;;
4089;SDS011;2059;48.538;12.146;2023-03-24T12:09:06;6.33;;;5.83;;
4089;SDS011;2059;48.538;12.146;2023-03-24T12:14:17;6.20;;;5.80;;
4089;SDS011;2059;48.538;12.146;2023-03-24T12:19:35;8.53;;;7.60;;
4089;SDS011;2059;48.538;12.146;2023-03-24T12:24:54;8.17;;;7.37;;
4089;SDS011;2059;48.538;12.146;2023-03-24T12:30:09;7.10;;;6.60;;
4089;SDS011;2059;48.538;12.146;2023-03-24T12:35:21;8.07;;;7.07;;
4089;SDS011;2059;48.538;12.146;2023-03-24T12:40:36;9.40;;;8.60;;
4089;SDS011;2059;48.538;12.146;2023-03-24T12:46:04;6.80;;;6.40;;
4089;SDS011;2059;48.538;12.146;2023-03-24T12:51:18;7.17;;;6.50;;
4089;SDS011;2059;48.538;12.146;2023-03-24T12:56:28;7.17;;;6.67;;
4089;SDS011;2059;48.538;12.146;2023-03-24T13:01:35;7.20;;;6.70;;
4089;SDS011;2059;48.538;12.146;2023-03-24T13:06:43;7.40;;;6.93;;
4089;SDS011;2059;48.538;12.146;2023-03-24T13:11:52;6.87;;;6.43;;
4089;SDS011;2059;48.538;12.146;2023-03-24T13:16:59;7.23;;;6.80;;
4089;SDS011;2059;48.538;12.146;2023-03-24T13:22:08;7.80;;;7.30;;
4089;SDS011;2059;48.538;12.146;2023-03-24T13:27:19;7.10;;;6.70;;
4089;SDS011;2059;48.538;12.146;2023-03-24T13:32:27;7.47;;;6.90;;
4089;SDS011;2059;48.538;12.146;2023-03-24T13:37:34;7.30;;;6.90;;
4089;SDS011;2059;48.538;12.146;2023-03-24T13:42:43;7.17;;;6.77;;
4089;SDS011;2059;48.538;12.146;2023-03-24T13:47:48;7.63;;;7.13;;
4089;SDS011;2059;48.538;12.146;2023-03-24T13:57:58;7.37;;;6.70;;
4089;SDS011;2059;48.538;12.146;2023-03-24T14:03:13;7.03;;;6.40;;
4089;SDS011;2059;48.538;12.146;2023-03-24T14:14:05;6.27;;;5.77;;
4089;SDS011;2059;48.538;12.146;2023-03-24T14:19:08;5.33;;;5.10;;
4089;SDS011;2059;48.538;12.146;2023-03-24T14:24:22;5.77;;;5.50;;
4089;SDS011;2059;48.538;12.146;2023-03-24T14:29:38;5.77;;;5.40;;
4089;SDS011;2059;48.538;12.146;2023-03-24T14:34:48;6.00;;;5.70;;
4089;SDS011;2059;48.538;12.146;2023-03-24T14:39:52;6.00;;;5.70;;
4089;SDS011;2059;48.538;12.146;2023-03-24T14:44:58;5.67;;;5.47;;
4089;SDS011;2059;48.538;12.146;2023-03-24T14:50:08;5.90;;;5.63;;
4089;SDS011;2059;48.538;12.146;2023-03-24T14:55:18;4.23;;;4.03;;
4089;SDS011;2059;48.538;12.146;2023-03-24T15:00:23;2.60;;;2.50;;
4089;SDS011;2059;48.538;12.146;2023-03-24T15:05:33;2.40;;;2.40;;
4089;SDS011;2059;48.538;12.146;2023-03-24T15:10:36;2.87;;;2.77;;
4089;SDS011;2059;48.538;12.146;2023-03-24T15:15:46;2.83;;;2.73;;
4089;SDS011;2059;48.538;12.146;2023-03-24T15:20:48;3.60;;;3.37;;
4089;SDS011;2059;48.538;12.146;2023-03-24T15:25:50;3.10;;;2.90;;
4089;SDS011;2059;48.538;12.146;2023-03-24T15:30:54;2.40;;;2.40;;
4089;SDS011;2059;48.538;12.146;2023-03-24T15:35:58;2.27;;;2.27;;
4089;SDS011;2059;48.538;12.146;2023-03-24T15:41:01;2.80;;;2.70;;
4089;SDS011;2059;48.538;12.146;2023-03-24T15:46:16;2.63;;;2.53;;
4089;SDS011;2059;48.538;12.146;2023-03-24T15:57:00;2.60;;;2.50;;
4089;SDS011;2059;48.538;12.146;2023-03-24T16:02:13;2.70;;;2.60;;
4089;SDS011;2059;48.538;12.146;2023-03-24T16:07:23;3.30;;;3.20;;
4089;SDS011;2059;48.538;12.146;2023-03-24T16:12:28;2.60;;;2.50;;
4089;SDS011;2059;48.538;12.146;2023-03-24T16:17:32;3.23;;;2.60;;
4089;SDS011;2059;48.538;12.146;2023-03-24T16:22:33;3.00;;;2.80;;
4089;SDS011;2059;48.538;12.146;2023-03-24T16:27:35;2.53;;;2.43;;
4089;SDS011;2059;48.538;12.146;2023-03-24T16:32:39;2.40;;;2.30;;
4089;SDS011;2059;48.538;12.146;2023-03-24T16:37:40;1.93;;;1.93;;
4089;SDS011;2059;48.538;12.146;2023-03-24T16:42:42;4.70;;;4.50;;
4089;SDS011;2059;48.538;12.146;2023-03-24T16:47:46;2.20;;;2.10;;
4089;SDS011;2059;48.538;12.146;2023-03-24T16:52:48;2.30;;;2.20;;
4089;SDS011;2059;48.538;12.146;2023-03-24T16:57:50;2.33;;;2.23;;
4089;SDS011;2059;48.538;12.146;2023-03-24T17:03:21;5.10;;;4.80;;
4089;SDS011;2059;48.538;12.146;2023-03-24T17:08:23;5.17;;;4.87;;
4089;SDS011;2059;48.538;12.146;2023-03-24T17:13:25;4.90;;;4.70;;
4089;SDS011;2059;48.538;12.146;2023-03-24T17:18:28;4.60;;;4.30;;
4089;SDS011;2059;48.538;12.146;2023-03-24T17:23:30;2.20;;;2.10;;
4089;SDS011;2059;48.538;12.146;2023-03-24T17:28:33;2.37;;;2.27;;
4089;SDS011;2059;48.538;12.146;2023-03-24T17:33:37;2.30;;;2.20;;
4089;SDS011;2059;48.538;12.146;2023-03-24T17:38:39;4.03;;;3.90;;
4089;SDS011;2059;48.538;12.146;2023-03-24T17:43:43;3.83;;;3.70;;
4089;SDS011;2059;48.538;12.146;2023-03-24T17:48:47;4.27;;;4.07;;
4089;SDS011;2059;48.538;12.146;2023-03-24T17:53:49;2.30;;;2.20;;
4089;SDS011;2059;48.538;12.146;2023-03-24T17:58:52;2.00;;;1.90;;
4089;SDS011;2059;48.538;12.146;2023-03-24T18:03:59;2.30;;;2.20;;
4089;SDS011;2059;48.538;12.146;2023-03-24T18:09:01;3.23;;;2.80;;
4089;SDS011;2059;48.538;12.146;2023-03-24T18:14:03;2.27;;;2.17;;
4089;SDS011;2059;48.538;12.146;2023-03-24T18:19:09;6.10;;;3.20;;
4089;SDS011;2059;48.538;12.146;2023-03-24T18:24:12;4.40;;;4.20;;
4089;SDS011;2059;48.538;12.146;2023-03-24T18:29:14;4.70;;;4.50;;
4089;SDS011;2059;48.538;12.146;2023-03-24T18:34:17;5.60;;;5.20;;
4089;SDS011;2059;48.538;12.146;2023-03-24T18:39:21;4.80;;;4.60;;
4089;SDS011;2059;48.538;12.146;2023-03-24T18:44:23;4.73;;;4.53;;
4089;SDS011;2059;48.538;12.146;2023-03-24T18:49:26;4.90;;;4.70;;
4089;SDS011;2059;48.538;12.146;2023-03-24T18:54:28;4.60;;;4.30;;
4089;SDS011;2059;48.538;12.146;2023-03-24T18:59:30;4.73;;;4.43;;
4089;SDS011;2059;48.538;12.146;2023-03-24T19:04:33;3.23;;;3.13;;
4089;SDS011;2059;48.538;12.146;2023-03-24T19:09:35;3.13;;;2.83;;
4089;SDS011;2059;48.538;12.146;2023-03-24T19:14:37;2.50;;;2.40;;
4089;SDS011;2059;48.538;12.146;2023-03-24T19:19:40;2.57;;;2.43;;
4089;SDS011;2059;48.538;12.146;2023-03-24T19:24:42;6.93;;;3.13;;
4089;SDS011;2059;48.538;12.146;2023-03-24T19:29:44;2.63;;;2.43;;
4089;SDS011;2059;48.538;12.146;2023-03-24T19:34:48;2.37;;;2.27;;
4089;SDS011;2059;48.538;12.146;2023-03-24T19:39:50;2.67;;;2.47;;
4089;SDS011;2059;48.538;12.146;2023-03-24T19:44:52;2.63;;;2.47;;
4089;SDS011;2059;48.538;12.146;2023-03-24T19:49:56;2.40;;;2.30;;
4089;SDS011;2059;48.538;12.146;2023-03-24T19:54:58;1.87;;;1.77;;
4089;SDS011;2059;48.538;12.146;2023-03-24T19:59:59;2.17;;;2.07;;
4089;SDS011;2059;48.538;12.146;2023-03-24T20:05:04;2.10;;;2.00;;
4089;SDS011;2059;48.538;12.146;2023-03-24T20:10:07;2.17;;;2.00;;
4089;SDS011;2059;48.538;12.146;2023-03-24T20:15:10;4.30;;;4.10;;
4089;SDS011;2059;48.538;12.146;2023-03-24T20:20:13;4.37;;;4.13;;
4089;SDS011;2059;48.538;12.146;2023-03-24T20:25:16;2.60;;;2.50;;
4089;SDS011;2059;48.538;12.146;2023-03-24T20:30:18;4.50;;;4.20;;
4089;SDS011;2059;48.538;12.146;2023-03-24T20:35:22;4.30;;;4.00;;
4089;SDS011;2059;48.538;12.146;2023-03-24T20:40:24;4.50;;;4.30;;
4089;SDS011;2059;48.538;12.146;2023-03-24T20:45:25;4.00;;;3.80;;
4089;SDS011;2059;48.538;12.146;2023-03-24T20:50:28;4.10;;;3.90;;
4089;SDS011;2059;48.538;12.146;2023-03-24T20:55:30;4.50;;;4.10;;
4089;SDS011;2059;48.538;12.146;2023-03-24T21:00:32;4.20;;;4.00;;
4089;SDS011;2059;48.538;12.146;2023-03-24T21:05:38;4.30;;;4.10;;
4089;SDS011;2059;48.538;12.146;2023-03-24T21:10:40;5.00;;;4.80;;
4089;SDS011;2059;48.538;12.146;2023-03-24T21:15:42;4.70;;;4.40;;
4089;SDS011;2059;48.538;12.146;2023-03-24T21:20:50;4.60;;;4.40;;
4089;SDS011;2059;48.538;12.146;2023-03-24T21:25:54;7.50;;;5.53;;
4089;SDS011;2059;48.538;12.146;2023-03-24T21:30:56;4.50;;;4.30;;
4089;SDS011;2059;48.538;12.146;2023-03-24T21:35:59;4.40;;;4.20;;
4089;SDS011;2059;48.538;12.146;2023-03-24T21:41:01;4.80;;;4.40;;
4089;SDS011;2059;48.538;12.146;2023-03-24T21:46:03;4.70;;;4.40;;
4089;SDS011;2059;48.538;12.146;2023-03-24T21:51:07;4.93;;;4.60;;
4089;SDS011;2059;48.538;12.146;2023-03-24T21:56:09;2.63;;;2.43;;
4089;SDS011;2059;48.538;12.146;2023-03-24T22:01:11;2.30;;;2.20;;
4089;SDS011;2059;48.538;12.146;2023-03-24T22:06:15;2.63;;;2.50;;
4089;SDS011;2059;48.538;12.146;2023-03-24T22:11:17;4.37;;;4.07;;
4089;SDS011;2059;48.538;12.146;2023-03-24T22:16:19;4.80;;;4.40;;
4089;SDS011;2059;48.538;12.146;2023-03-24T22:21:22;8.30;;;5.43;;
4089;SDS011;2059;48.538;12.146;2023-03-24T22:26:24;6.10;;;5.50;;
4089;SDS011;2059;48.538;12.146;2023-03-24T22:31:26;6.60;;;5.47;;
4089;SDS011;2059;48.538;12.146;2023-03-24T22:36:29;5.30;;;4.90;;
4089;SDS011;2059;48.538;12.146;2023-03-24T22:41:31;5.67;;;5.07;;
4089;SDS011;2059;48.538;12.146;2023-03-24T22:46:33;6.53;;;5.93;;
4089;SDS011;2059;48.538;12.146;2023-03-24T22:51:36;3.97;;;2.53;;
4089;SDS011;2059;48.538;12.146;2023-03-24T22:56:38;4.33;;;2.50;;
4089;SDS011;2059;48.538;12.146;2023-03-24T23:01:40;2.17;;;2.07;;
4089;SDS011;2059;48.538;12.146;2023-03-24T23:06:43;5.60;;;3.23;;
4089;SDS011;2059;48.538;12.146;2023-03-24T23:11:45;4.50;;;4.20;;
4089;SDS011;2059;48.538;12.146;2023-03-24T23:16:47;5.20;;;4.80;;
4089;SDS011;2059;48.538;12.146;2023-03-24T23:21:51;4.73;;;4.43;;
4089;SDS011;2059;48.538;12.146;2023-03-24T23:26:53;4.17;;;3.97;;
4089;SDS011;2059;48.538;12.146;2023-03-24T23:31:55;5.57;;;5.13;;
4089;SDS011;2059;48.538;12.146;2023-03-24T23:36:59;5.40;;;4.90;;
4089;SDS011;2059;48.538;12.146;2023-03-24T23:42:02;5.17;;;4.77;;
4089;SDS011;2059;48.538;12.146;2023-03-24T23:47:04;5.17;;;4.77;;
4089;SDS011;2059;48.538;12.146;2023-03-24T23:52:07;4.67;;;4.37;;
4089;SDS011;2059;48.538;12.146;2023-03-24T23:57:09;5.47;;;4.97;;
